Robert C. Seamans — WDA4486 — position and weather

sailwx.info

Track history (hours):
 
Tides and Currents Weather Stations Pressure Air Temp Water Temp Dewpoint Dewpoint Depression Visibility Wind Speed Wind Dir Waves Ship Positions

Oceanographic research ship Robert C. Seamans (USA)

Ship's website: http://www.sea.edu/sea2000/Supporting2000/RobertSeamansIntro.htm

Detailed information on ship capabilities available from University of Delaware's Ocean Information Center.

Owner: Sea Education Association Corporation, Woods Hole, MA. More information available from US FCC via Universal Licensing System and Coast Guard Vessel Documentation Center.

Last reported at 2016-Jan-08 23:08 UTC. Time now 2016-Feb-08 06:06 UTC.
Position S 36°18' E 174°53'.
Warning: this ship's position is 30 days out of date.

Type: Sailing vessel. MMSI: 369503000.

Date/timePositionNaut miles runAvg speedWind from/ knotsBaromVisibWave heightAir tempDewpointWater temp
2016-Jan-08 23:08S 36°18' E 174°53'4 7.4
2016-Jan-08 22:33S 36°21' E 174°55'8 7.7
2016-Jan-08 21:33S 36°29' E 174°58'8 7.7
2016-Jan-08 20:29S 36°37' E 174°58'13 6.9
2016-Jan-08 18:33S 36°49' E 174°50'4 3.2
2016-Jan-08 17:26S 36°50' E 174°46'0 0.0
2016-Jan-08 16:32S 36°50' E 174°46'0 0.0
2016-Jan-08 15:32S 36°50' E 174°46'0 0.0
2016-Jan-08 14:32S 36°50' E 174°46'0 0.0
2016-Jan-08 13:32S 36°50' E 174°46'0 0.0
2016-Jan-08 12:26S 36°50' E 174°46'0 0.0
2016-Jan-08 11:32S 36°50' E 174°46'0 0.0
2016-Jan-08 10:32S 36°50' E 174°46'0 0.0
2016-Jan-08 09:32S 36°50' E 174°46'0 0.0
2016-Jan-08 08:26S 36°50' E 174°46'0 0.0
2016-Jan-08 07:32S 36°50' E 174°46'0 0.0
2016-Jan-08 06:32S 36°50' E 174°46'0 0.0
2016-Jan-08 05:26S 36°50' E 174°46'0 0.0
2016-Jan-08 04:32S 36°50' E 174°46'0 0.0
2016-Jan-08 03:32S 36°50' E 174°46'0 0.0
2016-Jan-08 02:32S 36°50' E 174°46'0 0.0
2016-Jan-07 23:32S 36°50' E 174°46'0 0.0
2016-Jan-07 20:25S 36°50' E 174°46'0 0.0
2016-Jan-07 19:19S 36°50' E 174°46'0 0.0
2016-Jan-07 17:19S 36°50' E 174°46'0 0.0
2016-Jan-07 16:31S 36°50' E 174°46'0 0.0
2016-Jan-07 15:19S 36°50' E 174°46'0 0.0
2016-Jan-07 06:31S 36°50' E 174°46'0 0.0
2016-Jan-07 05:31S 36°50' E 174°46'0 0.0
2016-Jan-07 04:24S 36°50' E 174°46'0 0.0
2016-Jan-07 03:30S 36°50' E 174°46'0 0.0
2016-Jan-07 00:06S 36°50' E 174°46'0 0.0
2016-Jan-06 23:12S 36°50' E 174°46'0 0.0
2016-Jan-06 22:30S 36°50' E 174°46'0 0.0
2016-Jan-06 21:30S 36°50' E 174°46'0 0.0
2016-Jan-06 20:30S 36°50' E 174°46'0 0.0
2016-Jan-06 19:12S 36°50' E 174°46'1 1.7
2016-Jan-06 18:33S 36°50' E 174°47'10 0.5
2016-Jan-06 00:33S 36°46' E 174°58'8 8.1
2016-Jan-05 23:33S 36°39' E 175°04'8 8.3
2016-Jan-05 22:33S 36°31' E 175°07'8 8.1
2016-Jan-05 21:33S 36°24' E 175°10'  
2015-Dec-31 04:28S 36°38' E 175°10'4 3.8
2015-Dec-31 03:23S 36°37' E 175°05'4 5.0
2015-Dec-31 02:33S 36°40' E 175°02'4 4.2
2015-Dec-31 01:33S 36°40' E 174°56'10 5.0
2015-Dec-30 23:33S 36°48' E 174°48'2 1.5
2015-Dec-30 22:33S 36°49' E 174°50'3 2.9
2015-Dec-30 21:32S 36°50' E 174°47'1 0.4
2015-Dec-30 20:16S 36°50' E 174°46'0 0.0
2015-Dec-30 19:28S 36°50' E 174°46'0 0.0
2015-Dec-30 18:16S 36°50' E 174°46'0 0.0
2015-Dec-30 17:28S 36°50' E 174°46'0 0.0
2015-Dec-30 16:28S 36°50' E 174°46'0 0.0
2015-Dec-30 15:27S 36°50' E 174°46'0 0.0
2015-Dec-30 14:27S 36°50' E 174°46'0 0.0
2015-Dec-30 13:33S 36°50' E 174°46'0 0.0
2015-Dec-30 10:33S 36°50' E 174°46'0 0.0
2015-Dec-30 09:27S 36°50' E 174°46'0 0.0
2015-Dec-30 07:33S 36°50' E 174°46'0 0.0
2015-Dec-30 06:33S 36°50' E 174°46'0 0.0
2015-Dec-30 05:09S 36°50' E 174°46'0 0.0
2015-Dec-30 04:09S 36°50' E 174°46'0 0.0
2015-Dec-30 03:33S 36°50' E 174°46'0 0.0
2015-Dec-30 02:33S 36°50' E 174°46'0 0.0
2015-Dec-30 01:33S 36°50' E 174°46'0 0.0
2015-Dec-30 00:33S 36°50' E 174°46'0 0.0
2015-Dec-29 23:33S 36°50' E 174°46'  
Track history (hours):
 
Tides and Currents Weather Stations Pressure Air Temp Water Temp Dewpoint Dewpoint Depression Visibility Wind Speed Wind Dir Waves Ship Positions

Oceanographic research ship Robert C. Seamans (USA)

Ship's website: http://www.sea.edu/sea2000/Supporting2000/RobertSeamansIntro.htm

Detailed information on ship capabilities available from University of Delaware's Ocean Information Center.

Owner: Sea Education Association Corporation, Woods Hole, MA. More information available from US FCC via Universal Licensing System and Coast Guard Vessel Documentation Center.

Last reported at 2016-Jan-08 23:08 UTC. Time now 2016-Feb-08 06:06 UTC.
Position S 36°18' E 174°53'.
Warning: this ship's position is 30 days out of date.

Type: Sailing vessel. MMSI: 369503000.

Date/timePositionNaut miles runAvg speedWind from/ knotsBaromVisibWave heightAir tempDewpointWater temp
2016-Jan-08 23:08S 36°18' E 174°53'4 7.4
2016-Jan-08 22:33S 36°21' E 174°55'8 7.7
2016-Jan-08 21:33S 36°29' E 174°58'8 7.7
2016-Jan-08 20:29S 36°37' E 174°58'13 6.9
2016-Jan-08 18:33S 36°49' E 174°50'4 3.2
2016-Jan-08 17:26S 36°50' E 174°46'0 0.0
2016-Jan-08 16:32S 36°50' E 174°46'0 0.0
2016-Jan-08 15:32S 36°50' E 174°46'0 0.0
2016-Jan-08 14:32S 36°50' E 174°46'0 0.0
2016-Jan-08 13:32S 36°50' E 174°46'0 0.0
2016-Jan-08 12:26S 36°50' E 174°46'0 0.0
2016-Jan-08 11:32S 36°50' E 174°46'0 0.0
2016-Jan-08 10:32S 36°50' E 174°46'0 0.0
2016-Jan-08 09:32S 36°50' E 174°46'0 0.0
2016-Jan-08 08:26S 36°50' E 174°46'0 0.0
2016-Jan-08 07:32S 36°50' E 174°46'0 0.0
2016-Jan-08 06:32S 36°50' E 174°46'0 0.0
2016-Jan-08 05:26S 36°50' E 174°46'0 0.0
2016-Jan-08 04:32S 36°50' E 174°46'0 0.0
2016-Jan-08 03:32S 36°50' E 174°46'0 0.0
2016-Jan-08 02:32S 36°50' E 174°46'0 0.0
2016-Jan-07 23:32S 36°50' E 174°46'0 0.0
2016-Jan-07 20:25S 36°50' E 174°46'0 0.0
2016-Jan-07 19:19S 36°50' E 174°46'0 0.0
2016-Jan-07 17:19S 36°50' E 174°46'0 0.0
2016-Jan-07 16:31S 36°50' E 174°46'0 0.0
2016-Jan-07 15:19S 36°50' E 174°46'0 0.0
2016-Jan-07 06:31S 36°50' E 174°46'0 0.0
2016-Jan-07 05:31S 36°50' E 174°46'0 0.0
2016-Jan-07 04:24S 36°50' E 174°46'0 0.0
2016-Jan-07 03:30S 36°50' E 174°46'0 0.0
2016-Jan-07 00:06S 36°50' E 174°46'0 0.0
2016-Jan-06 23:12S 36°50' E 174°46'0 0.0
2016-Jan-06 22:30S 36°50' E 174°46'0 0.0
2016-Jan-06 21:30S 36°50' E 174°46'0 0.0
2016-Jan-06 20:30S 36°50' E 174°46'0 0.0
2016-Jan-06 19:12S 36°50' E 174°46'1 1.7
2016-Jan-06 18:33S 36°50' E 174°47'10 0.5
2016-Jan-06 00:33S 36°46' E 174°58'8 8.1
2016-Jan-05 23:33S 36°39' E 175°04'8 8.3
2016-Jan-05 22:33S 36°31' E 175°07'8 8.1
2016-Jan-05 21:33S 36°24' E 175°10'  
2015-Dec-31 04:28S 36°38' E 175°10'4 3.8
2015-Dec-31 03:23S 36°37' E 175°05'4 5.0
2015-Dec-31 02:33S 36°40' E 175°02'4 4.2
2015-Dec-31 01:33S 36°40' E 174°56'10 5.0
2015-Dec-30 23:33S 36°48' E 174°48'2 1.5
2015-Dec-30 22:33S 36°49' E 174°50'3 2.9
2015-Dec-30 21:32S 36°50' E 174°47'1 0.4
2015-Dec-30 20:16S 36°50' E 174°46'0 0.0
2015-Dec-30 19:28S 36°50' E 174°46'0 0.0
2015-Dec-30 18:16S 36°50' E 174°46'0 0.0
2015-Dec-30 17:28S 36°50' E 174°46'0 0.0
2015-Dec-30 16:28S 36°50' E 174°46'0 0.0
2015-Dec-30 15:27S 36°50' E 174°46'0 0.0
2015-Dec-30 14:27S 36°50' E 174°46'0 0.0
2015-Dec-30 13:33S 36°50' E 174°46'0 0.0
2015-Dec-30 10:33S 36°50' E 174°46'0 0.0
2015-Dec-30 09:27S 36°50' E 174°46'0 0.0
2015-Dec-30 07:33S 36°50' E 174°46'0 0.0
2015-Dec-30 06:33S 36°50' E 174°46'0 0.0
2015-Dec-30 05:09S 36°50' E 174°46'0 0.0
2015-Dec-30 04:09S 36°50' E 174°46'0 0.0
2015-Dec-30 03:33S 36°50' E 174°46'0 0.0
2015-Dec-30 02:33S 36°50' E 174°46'0 0.0
2015-Dec-30 01:33S 36°50' E 174°46'0 0.0
2015-Dec-30 00:33S 36°50' E 174°46'0 0.0
2015-Dec-29 23:33S 36°50' E 174°46'  

Dump ship's entire track history